Time;durP1;ratioP1;P1;durP2;ratioP2;P2;SDS_P1;SDS_P2;PMS_P1;PMS_P2;Temp;Humidity;BMP_temperature;BMP_pressure;BME280_temperature;BME280_humidity;BME280_pressure;Samples;Min_cycle;Max_cycle;Signal;HPM_P1;HPM_P2
2023/12/06 00:01:38;;;;;;;114.72;46.50;;;1.80;99.90;;;;;;5095358;28;20414;-79
2023/12/06 00:04:04;;;;;;;122.93;52.55;;;1.80;99.90;;;;;;5078761;28;21007;-76
2023/12/06 00:06:31;;;;;;;121.40;50.97;;;1.80;99.90;;;;;;5090548;28;20044;-77
2023/12/06 00:08:57;;;;;;;102.70;42.97;;;1.80;99.90;;;;;;5061110;28;20505;-79
2023/12/06 00:11:23;;;;;;;126.10;51.43;;;1.80;99.90;;;;;;5093787;28;20107;-78
2023/12/06 00:13:49;;;;;;;124.93;50.13;;;1.90;99.90;;;;;;5069232;28;20053;-80
2023/12/06 00:16:16;;;;;;;136.00;55.87;;;1.90;99.90;;;;;;5074200;28;20043;-77
2023/12/06 00:18:43;;;;;;;118.70;47.93;;;1.80;99.90;;;;;;5065029;28;20058;-78
2023/12/06 00:21:10;;;;;;;118.57;50.30;;;1.80;99.90;;;;;;5076969;28;20032;-78
2023/12/06 00:23:36;;;;;;;132.77;56.40;;;1.90;99.90;;;;;;5090919;28;20034;-81
2023/12/06 00:26:03;;;;;;;129.43;56.67;;;1.90;99.90;;;;;;5096225;28;20074;-80
2023/12/06 00:28:29;;;;;;;111.95;50.30;;;1.90;99.90;;;;;;5096511;28;20463;-74
2023/12/06 00:30:55;;;;;;;123.07;54.80;;;1.80;99.90;;;;;;5083904;28;20028;-77
2023/12/06 00:33:22;;;;;;;119.32;52.28;;;1.80;99.90;;;;;;5077878;28;20043;-78
2023/12/06 00:35:48;;;;;;;126.60;57.83;;;1.90;99.90;;;;;;5050226;28;20032;-80
2023/12/06 00:38:15;;;;;;;129.03;54.47;;;1.90;99.90;;;;;;5069341;28;20398;-80
2023/12/06 00:40:41;;;;;;;127.43;54.43;;;1.90;99.90;;;;;;5085665;27;20277;-77
2023/12/06 00:43:07;;;;;;;125.97;54.47;;;1.90;99.90;;;;;;5069340;28;20375;-79
2023/12/06 00:45:34;;;;;;;121.27;53.03;;;1.90;99.90;;;;;;5083636;28;20024;-80
2023/12/06 00:48:00;;;;;;;121.30;50.10;;;1.90;99.90;;;;;;5094708;27;20032;-78
2023/12/06 00:50:26;;;;;;;119.93;50.77;;;1.90;99.90;;;;;;5080860;28;20051;-78
2023/12/06 00:52:53;;;;;;;119.23;51.40;;;2.00;99.90;;;;;;5068509;28;20026;-78
2023/12/06 00:55:19;;;;;;;136.43;57.27;;;2.00;99.90;;;;;;5080713;28;20047;-80
2023/12/06 00:57:45;;;;;;;122.53;53.97;;;1.90;99.90;;;;;;5070303;28;20528;-80
2023/12/06 01:00:13;;;;;;;127.30;57.07;;;2.00;99.90;;;;;;5070259;28;20032;-81
2023/12/06 01:02:39;;;;;;;124.30;56.10;;;2.00;99.90;;;;;;5070114;28;20635;-81
2023/12/06 01:05:06;;;;;;;112.90;53.60;;;1.90;99.90;;;;;;5079958;28;20039;-78
2023/12/06 01:07:33;;;;;;;126.13;57.80;;;1.90;99.90;;;;;;5061000;28;20397;-80
2023/12/06 01:09:59;;;;;;;123.80;55.33;;;1.90;99.90;;;;;;5063070;28;20036;-78
2023/12/06 01:12:25;;;;;;;114.17;50.80;;;1.90;99.90;;;;;;5094458;28;20028;-77
2023/12/06 01:14:51;;;;;;;111.23;49.80;;;1.90;99.90;;;;;;5046358;28;20055;-79
2023/12/06 01:17:18;;;;;;;122.53;54.50;;;1.90;99.90;;;;;;5077264;28;20028;-79
2023/12/06 01:19:44;;;;;;;123.27;54.00;;;2.00;99.90;;;;;;5081869;28;20046;-78
2023/12/06 01:22:10;;;;;;;118.33;53.03;;;2.00;99.90;;;;;;5072681;28;20035;-78
2023/12/06 01:24:36;;;;;;;118.27;53.57;;;2.00;99.90;;;;;;5076602;28;20032;-78
2023/12/06 01:27:04;;;;;;;117.07;52.43;;;2.00;99.90;;;;;;5075637;28;20435;-78
2023/12/06 01:29:30;;;;;;;114.43;54.63;;;2.00;99.90;;;;;;5081511;28;20032;-77
2023/12/06 01:31:57;;;;;;;108.17;47.87;;;2.00;99.90;;;;;;5093113;28;20700;-79
2023/12/06 01:34:23;;;;;;;119.30;53.00;;;2.00;99.90;;;;;;5073527;28;20036;-79
2023/12/06 01:36:49;;;;;;;113.33;50.40;;;2.00;99.90;;;;;;5079174;28;20028;-78
2023/12/06 01:39:16;;;;;;;128.67;55.80;;;2.00;99.90;;;;;;5074207;28;20804;-79
2023/12/06 01:41:48;;;;;;;135.33;57.80;;;2.00;99.90;;;;;;5111146;27;21389;-74
2023/12/06 01:44:14;;;;;;;120.90;52.77;;;2.00;99.90;;;;;;5078028;28;20028;-78
2023/12/06 01:46:40;;;;;;;125.57;54.37;;;2.10;99.90;;;;;;5051534;28;20290;-76
2023/12/06 01:49:10;;;;;;;123.30;52.63;;;2.10;99.90;;;;;;5071404;28;20030;-78
2023/12/06 01:51:37;;;;;;;117.33;48.97;;;2.10;99.90;;;;;;5079721;28;20046;-78
2023/12/06 01:54:04;;;;;;;142.57;57.40;;;2.10;99.90;;;;;;5071069;28;20032;-77
2023/12/06 01:56:31;;;;;;;151.87;59.37;;;2.10;99.90;;;;;;5106719;27;20105;-77
2023/12/06 01:58:59;;;;;;;123.80;50.90;;;2.20;99.90;;;;;;5077351;28;20032;-79
2023/12/06 02:01:25;;;;;;;120.57;48.30;;;2.20;99.90;;;;;;5073830;28;20397;-78
2023/12/06 02:03:51;;;;;;;117.37;46.93;;;2.20;99.90;;;;;;5067338;28;20032;-78
2023/12/06 02:06:18;;;;;;;120.43;46.50;;;2.20;99.90;;;;;;5105752;27;20039;-77
2023/12/06 02:08:46;;;;;;;107.73;43.57;;;2.20;99.90;;;;;;5070285;28;20032;-76
2023/12/06 02:11:12;;;;;;;124.83;50.47;;;2.30;99.90;;;;;;5086387;28;20036;-77
2023/12/06 02:13:39;;;;;;;126.23;49.20;;;2.30;99.90;;;;;;5097069;28;20032;-75
2023/12/06 02:16:06;;;;;;;121.53;48.77;;;2.30;99.90;;;;;;5101984;27;20028;-77
2023/12/06 02:18:33;;;;;;;125.97;49.73;;;2.30;99.90;;;;;;5068853;28;20243;-80
2023/12/06 02:21:00;;;;;;;112.90;43.37;;;2.30;99.90;;;;;;5078319;28;20035;-77
2023/12/06 02:23:33;;;;;;;139.53;52.53;;;2.30;99.90;;;;;;5091244;28;20482;-79
2023/12/06 02:25:59;;;;;;;133.27;50.63;;;2.30;99.90;;;;;;5062664;28;20102;-80
2023/12/06 02:28:26;;;;;;;126.00;51.60;;;2.30;99.90;;;;;;5100197;28;20157;-77
2023/12/06 02:30:52;;;;;;;145.63;54.80;;;2.40;99.90;;;;;;5069407;28;20047;-79
2023/12/06 02:33:18;;;;;;;152.27;57.17;;;2.40;99.90;;;;;;5079097;28;20035;-78
2023/12/06 02:35:52;;;;;;;144.10;55.42;;;2.40;99.90;;;;;;5108480;27;20036;-80
2023/12/06 02:38:20;;;;;;;137.77;54.30;;;2.40;99.90;;;;;;5082035;28;20395;-76
2023/12/06 02:40:49;;;;;;;129.63;48.83;;;2.40;99.90;;;;;;5082466;28;20032;-77
2023/12/06 02:43:16;;;;;;;129.10;48.57;;;2.40;99.90;;;;;;5065404;28;20032;-76
2023/12/06 02:45:43;;;;;;;122.03;47.80;;;2.50;99.90;;;;;;5079299;28;20047;-76
2023/12/06 02:48:09;;;;;;;128.30;52.90;;;2.50;99.90;;;;;;5101460;28;20624;-79
2023/12/06 02:50:35;;;;;;;126.07;46.72;;;2.50;99.90;;;;;;5096978;28;20028;-76
2023/12/06 02:53:02;;;;;;;104.67;41.27;;;2.50;99.90;;;;;;5116641;27;20028;-79
2023/12/06 02:55:28;;;;;;;108.60;43.63;;;2.50;99.90;;;;;;5074507;28;20419;-78
2023/12/06 02:57:54;;;;;;;117.43;42.35;;;2.50;99.90;;;;;;5096908;28;20518;-74
2023/12/06 03:00:21;;;;;;;121.35;46.67;;;2.60;99.90;;;;;;5101697;28;20039;-77
2023/12/06 03:02:47;;;;;;;147.07;56.17;;;2.60;99.90;;;;;;5089708;28;20405;-77
2023/12/06 03:05:13;;;;;;;122.20;49.60;;;2.60;99.90;;;;;;5106826;28;20048;-79
2023/12/06 03:07:40;;;;;;;127.00;50.73;;;2.60;99.90;;;;;;5071078;28;20055;-76
2023/12/06 03:10:06;;;;;;;137.83;50.93;;;2.60;99.90;;;;;;5057835;28;20032;-78
2023/12/06 03:12:33;;;;;;;118.90;47.45;;;2.60;99.90;;;;;;5071839;28;20055;-78
2023/12/06 03:14:59;;;;;;;131.23;49.95;;;2.60;99.90;;;;;;5082596;28;20395;-79
2023/12/06 03:17:25;;;;;;;116.13;45.90;;;2.70;99.90;;;;;;5072318;28;20065;-78
2023/12/06 03:19:52;;;;;;;123.30;48.33;;;2.70;99.90;;;;;;5056688;28;20484;-80
2023/12/06 03:22:18;;;;;;;123.13;46.70;;;2.70;99.90;;;;;;5077345;28;20388;-78
2023/12/06 03:24:44;;;;;;;113.47;45.38;;;2.70;99.90;;;;;;5075302;28;20027;-80
2023/12/06 03:27:11;;;;;;;131.97;48.90;;;2.70;99.90;;;;;;5060338;28;20039;-80
2023/12/06 03:29:39;;;;;;;121.87;46.73;;;2.70;99.90;;;;;;5075718;28;20051;-79
2023/12/06 03:32:06;;;;;;;120.20;45.35;;;2.70;99.90;;;;;;5098456;28;20039;-78
2023/12/06 03:34:32;;;;;;;130.63;50.83;;;2.70;99.90;;;;;;5082397;28;20491;-80
2023/12/06 03:36:59;;;;;;;144.47;53.67;;;2.70;99.90;;;;;;5110272;27;20044;-77
2023/12/06 03:39:26;;;;;;;137.00;52.20;;;2.80;99.90;;;;;;5076973;28;20047;-78
2023/12/06 03:41:52;;;;;;;137.23;52.78;;;2.80;99.90;;;;;;5076999;28;20046;-78
2023/12/06 03:44:18;;;;;;;120.13;48.13;;;2.80;99.90;;;;;;5080819;28;20032;-78
2023/12/06 03:46:45;;;;;;;125.47;48.60;;;2.80;99.90;;;;;;5078448;28;20063;-78
2023/12/06 03:49:11;;;;;;;125.88;48.35;;;2.80;99.90;;;;;;5107837;27;20044;-76
2023/12/06 03:51:37;;;;;;;119.80;48.43;;;2.90;99.90;;;;;;5058672;28;20031;-77
2023/12/06 03:54:04;;;;;;;136.45;53.85;;;2.90;99.90;;;;;;5066741;28;20047;-77
2023/12/06 03:56:31;;;;;;;140.98;54.97;;;2.80;99.90;;;;;;5076713;28;20037;-78
2023/12/06 03:58:57;;;;;;;145.82;56.63;;;2.80;99.90;;;;;;5099083;28;20051;-77
2023/12/06 04:01:24;;;;;;;121.72;48.80;;;2.80;99.90;;;;;;5076821;28;20032;-77
2023/12/06 04:03:50;;;;;;;134.80;51.75;;;2.90;99.90;;;;;;5081988;28;20043;-78
2023/12/06 04:06:16;;;;;;;128.83;51.83;;;2.90;99.90;;;;;;5074443;28;20039;-79
2023/12/06 04:08:43;;;;;;;110.80;46.88;;;2.90;99.90;;;;;;5065941;28;20051;-79
2023/12/06 04:11:09;;;;;;;127.28;49.95;;;2.90;99.90;;;;;;5057613;28;20031;-79
2023/12/06 04:13:35;;;;;;;138.05;52.38;;;2.90;99.90;;;;;;5057965;28;20039;-78
2023/12/06 04:16:02;;;;;;;119.18;49.88;;;2.90;99.90;;;;;;5095393;28;20059;-79
2023/12/06 04:18:28;;;;;;;132.63;54.17;;;2.90;99.90;;;;;;5081887;28;20051;-77
2023/12/06 04:20:55;;;;;;;114.53;47.25;;;2.90;99.90;;;;;;5096317;28;20482;-78
2023/12/06 04:23:21;;;;;;;120.70;48.45;;;2.90;99.90;;;;;;5089976;28;20054;-79
2023/12/06 04:25:48;;;;;;;117.07;48.27;;;3.00;99.90;;;;;;5073691;28;20036;-78
2023/12/06 04:28:14;;;;;;;146.70;59.65;;;3.00;99.90;;;;;;5073754;28;20028;-80
2023/12/06 04:30:40;;;;;;;122.70;50.85;;;3.00;99.90;;;;;;5112013;27;20035;-77
2023/12/06 04:33:07;;;;;;;113.90;45.17;;;3.00;99.90;;;;;;5106372;27;20043;-79
2023/12/06 04:35:33;;;;;;;121.93;49.72;;;3.00;99.90;;;;;;5082255;28;20486;-79
2023/12/06 04:37:59;;;;;;;122.20;49.72;;;3.00;99.90;;;;;;5080134;28;20039;-80
2023/12/06 04:40:26;;;;;;;108.40;46.92;;;3.00;99.90;;;;;;5057311;28;20071;-79
2023/12/06 04:42:52;;;;;;;129.18;52.53;;;3.00;99.90;;;;;;5072436;28;20054;-78
2023/12/06 04:45:18;;;;;;;113.95;48.30;;;3.10;99.90;;;;;;5078491;28;20394;-77
2023/12/06 04:47:45;;;;;;;117.10;48.13;;;3.10;99.90;;;;;;5092449;28;20034;-78
2023/12/06 04:50:11;;;;;;;114.32;47.55;;;3.10;99.90;;;;;;5093756;28;20039;-80
2023/12/06 04:52:37;;;;;;;117.50;48.78;;;3.10;99.90;;;;;;5093282;28;20039;-75
2023/12/06 04:55:04;;;;;;;109.72;49.25;;;3.10;99.90;;;;;;5077122;28;20042;-80
2023/12/06 04:57:30;;;;;;;108.63;46.30;;;3.10;99.90;;;;;;5080772;28;20024;-78
2023/12/06 04:59:57;;;;;;;105.80;44.90;;;3.10;99.90;;;;;;5078612;28;20032;-81
2023/12/06 05:02:23;;;;;;;94.75;44.92;;;3.10;99.90;;;;;;5095288;28;20038;-78
2023/12/06 05:04:49;;;;;;;123.43;48.70;;;3.10;99.90;;;;;;5079584;28;20040;-76
2023/12/06 05:07:16;;;;;;;112.43;49.08;;;3.20;99.90;;;;;;5059959;28;20040;-78
2023/12/06 05:09:42;;;;;;;104.00;47.92;;;3.20;99.90;;;;;;5095315;28;20347;-79
2023/12/06 05:12:08;;;;;;;120.45;53.58;;;3.20;99.90;;;;;;5076907;28;20031;-78
2023/12/06 05:14:34;;;;;;;109.25;49.92;;;3.20;99.90;;;;;;5100593;28;20479;-78
2023/12/06 05:17:01;;;;;;;95.65;43.80;;;3.20;99.90;;;;;;5084542;28;20038;-77
2023/12/06 05:19:27;;;;;;;100.63;45.17;;;3.20;99.90;;;;;;5078177;28;20024;-78
2023/12/06 05:21:53;;;;;;;90.50;40.97;;;3.20;99.90;;;;;;5073294;28;20044;-76
2023/12/06 05:24:20;;;;;;;79.82;37.03;;;3.20;99.90;;;;;;5096666;28;20032;-77
2023/12/06 05:26:47;;;;;;;104.20;48.03;;;3.20;99.90;;;;;;5072071;28;20430;-79
2023/12/06 05:29:13;;;;;;;103.47;48.00;;;3.20;99.90;;;;;;5056650;28;20040;-77
2023/12/06 05:31:39;;;;;;;95.55;44.35;;;3.30;99.90;;;;;;5090972;28;20036;-77
2023/12/06 05:34:07;;;;;;;96.70;43.35;;;3.30;99.90;;;;;;5093517;28;20047;-76
2023/12/06 05:36:34;;;;;;;92.53;43.73;;;3.30;99.90;;;;;;5091607;28;20398;-79
2023/12/06 05:39:00;;;;;;;91.03;41.78;;;3.30;99.90;;;;;;5073925;28;20038;-77
2023/12/06 05:41:26;;;;;;;90.85;42.60;;;3.30;99.90;;;;;;5076013;28;20040;-78
2023/12/06 05:43:53;;;;;;;86.95;42.17;;;3.30;99.90;;;;;;5073914;28;20047;-78
2023/12/06 05:46:19;;;;;;;82.82;41.42;;;3.30;99.90;;;;;;5070074;28;20039;-75
2023/12/06 05:48:45;;;;;;;87.38;40.88;;;3.30;99.90;;;;;;5075910;28;20043;-75
2023/12/06 05:51:12;;;;;;;86.10;41.72;;;3.30;99.90;;;;;;5074674;28;20043;-79
2023/12/06 05:53:38;;;;;;;73.05;38.55;;;3.30;99.90;;;;;;5091550;27;20043;-78
2023/12/06 05:56:06;;;;;;;74.95;38.00;;;3.40;99.90;;;;;;5070064;28;20051;-79
2023/12/06 05:58:32;;;;;;;74.47;37.90;;;3.40;99.90;;;;;;5076200;28;20035;-78
2023/12/06 06:01:00;;;;;;;77.10;39.13;;;3.40;99.90;;;;;;5057422;28;20032;-77
2023/12/06 06:03:26;;;;;;;84.30;41.35;;;3.40;99.90;;;;;;5075322;28;20036;-78
2023/12/06 06:05:53;;;;;;;72.28;36.53;;;3.40;99.90;;;;;;5092216;28;20035;-75
2023/12/06 06:08:19;;;;;;;74.47;37.92;;;3.40;99.90;;;;;;5075075;28;20031;-78
2023/12/06 06:10:45;;;;;;;74.28;36.03;;;3.40;99.90;;;;;;5092661;28;20042;-78
2023/12/06 06:13:12;;;;;;;68.35;33.10;;;3.40;99.90;;;;;;5074468;28;20044;-77
2023/12/06 06:15:39;;;;;;;61.00;31.80;;;3.50;99.90;;;;;;5077485;28;20024;-77
2023/12/06 06:18:05;;;;;;;68.75;32.90;;;3.50;99.90;;;;;;5090920;28;20035;-78
2023/12/06 06:20:33;;;;;;;62.85;32.42;;;3.50;99.90;;;;;;5107153;27;20414;-78
2023/12/06 06:23:00;;;;;;;84.47;39.33;;;3.50;99.90;;;;;;5060577;28;20043;-77
2023/12/06 06:25:26;;;;;;;81.30;41.75;;;3.50;99.90;;;;;;5078594;28;20293;-81
2023/12/06 06:27:52;;;;;;;72.57;35.88;;;3.60;99.90;;;;;;5066457;28;20064;-77
2023/12/06 06:30:19;;;;;;;75.88;37.25;;;3.60;99.90;;;;;;5082628;28;20595;-81
2023/12/06 06:32:45;;;;;;;70.20;35.70;;;3.60;99.90;;;;;;5105671;27;20486;-81
2023/12/06 06:35:12;;;;;;;66.65;33.03;;;3.60;99.90;;;;;;5083147;28;20032;-80
2023/12/06 06:37:38;;;;;;;64.07;32.08;;;3.60;99.90;;;;;;5084209;28;20039;-78
2023/12/06 06:40:07;;;;;;;61.40;32.03;;;3.60;99.90;;;;;;5085279;28;20028;-79
2023/12/06 06:42:33;;;;;;;79.15;37.63;;;3.60;99.90;;;;;;5078215;28;20044;-81
2023/12/06 06:44:59;;;;;;;92.40;44.25;;;3.70;99.90;;;;;;5070218;28;20497;-79
2023/12/06 06:47:27;;;;;;;79.07;38.80;;;3.60;99.90;;;;;;5072014;28;20501;-82
2023/12/06 06:49:54;;;;;;;70.22;34.65;;;3.70;99.90;;;;;;5085496;28;20367;-81
2023/12/06 06:52:20;;;;;;;75.22;37.78;;;3.70;99.90;;;;;;5073625;28;20561;-80
2023/12/06 06:54:46;;;;;;;60.40;32.05;;;3.70;99.90;;;;;;5075902;28;20053;-79
2023/12/06 06:57:13;;;;;;;66.70;32.78;;;3.70;99.90;;;;;;5056914;28;20040;-81
2023/12/06 06:59:39;;;;;;;72.65;37.28;;;3.70;99.90;;;;;;5093380;28;20047;-78
2023/12/06 07:02:05;;;;;;;75.57;38.80;;;3.70;99.90;;;;;;5074455;28;20050;-80
2023/12/06 07:04:32;;;;;;;81.03;39.53;;;3.70;99.90;;;;;;5073371;28;20036;-80
2023/12/06 07:06:58;;;;;;;84.70;41.92;;;3.70;99.90;;;;;;5090906;28;20313;-79
2023/12/06 07:09:25;;;;;;;97.05;46.92;;;3.70;99.90;;;;;;5074573;28;20561;-80
2023/12/06 07:11:51;;;;;;;83.57;42.58;;;3.70;99.90;;;;;;5070874;28;20482;-79
2023/12/06 07:14:18;;;;;;;89.53;45.13;;;3.70;99.90;;;;;;5074209;28;20035;-79
2023/12/06 07:16:45;;;;;;;77.78;38.90;;;3.70;99.90;;;;;;5075638;28;20055;-79
2023/12/06 07:19:12;;;;;;;72.78;36.80;;;3.80;99.90;;;;;;5095478;28;20034;-80
2023/12/06 07:21:39;;;;;;;79.47;38.10;;;3.80;99.90;;;;;;5090908;28;20044;-79
2023/12/06 07:24:06;;;;;;;83.40;39.92;;;3.80;99.90;;;;;;5090609;28;20032;-77
2023/12/06 07:26:32;;;;;;;78.82;39.88;;;3.80;99.90;;;;;;5093694;28;20024;-76
2023/12/06 07:28:58;;;;;;;83.38;43.13;;;3.80;99.90;;;;;;5078678;28;20240;-78
2023/12/06 07:31:25;;;;;;;75.10;39.78;;;3.80;99.90;;;;;;5108656;27;20352;-77
2023/12/06 07:33:52;;;;;;;77.28;39.92;;;3.80;99.90;;;;;;5082309;28;20040;-79
2023/12/06 07:36:18;;;;;;;82.70;43.17;;;3.80;99.90;;;;;;5096486;28;20028;-78
2023/12/06 07:38:44;;;;;;;83.07;44.78;;;3.80;99.90;;;;;;5077735;28;20035;-77
2023/12/06 07:41:11;;;;;;;77.13;38.75;;;3.80;99.90;;;;;;5073870;28;20393;-77
2023/12/06 07:43:37;;;;;;;80.00;40.97;;;3.80;99.90;;;;;;5072400;28;20406;-79
2023/12/06 07:46:04;;;;;;;73.75;35.55;;;3.80;99.90;;;;;;5055057;28;20039;-80
2023/12/06 07:48:33;;;;;;;71.55;38.30;;;3.80;99.90;;;;;;5097294;28;20043;-77
2023/12/06 07:51:01;;;;;;;74.20;36.63;;;3.90;99.90;;;;;;5094352;28;20035;-77
2023/12/06 07:53:27;;;;;;;72.95;35.60;;;3.90;99.90;;;;;;5080840;27;20407;-78
2023/12/06 07:55:58;;;;;;;66.75;35.70;;;3.90;99.90;;;;;;5071448;28;20043;-76
2023/12/06 07:58:25;;;;;;;80.97;39.30;;;3.90;99.90;;;;;;5072911;28;20049;-77
2023/12/06 08:00:51;;;;;;;72.88;37.20;;;3.90;99.90;;;;;;5071098;28;20046;-78
2023/12/06 08:03:18;;;;;;;79.88;38.17;;;3.90;99.90;;;;;;5082696;28;20039;-76
2023/12/06 08:05:45;;;;;;;82.75;40.60;;;3.90;99.90;;;;;;5092925;28;20695;-78
2023/12/06 08:08:12;;;;;;;79.15;39.72;;;4.00;99.90;;;;;;5075558;28;20036;-78
2023/12/06 08:10:41;;;;;;;70.97;37.30;;;4.00;99.90;;;;;;5074228;28;20038;-77
2023/12/06 08:13:08;;;;;;;60.20;31.67;;;4.00;99.90;;;;;;5093445;28;20031;-79
2023/12/06 08:15:34;;;;;;;53.28;26.33;;;4.00;99.90;;;;;;5074909;28;20124;-78
2023/12/06 08:18:00;;;;;;;77.25;39.75;;;4.00;99.90;;;;;;5093130;28;20395;-78
2023/12/06 08:20:27;;;;;;;66.60;34.38;;;4.00;99.90;;;;;;5053880;28;20047;-77
2023/12/06 08:22:54;;;;;;;62.08;34.88;;;4.00;99.90;;;;;;5093364;28;20062;-77
2023/12/06 08:25:21;;;;;;;73.47;36.03;;;4.00;99.90;;;;;;5058629;28;20039;-78
2023/12/06 08:27:47;;;;;;;73.80;38.00;;;4.10;99.90;;;;;;5085024;28;20028;-78
2023/12/06 08:30:14;;;;;;;66.28;35.70;;;4.10;99.90;;;;;;5077152;28;20378;-78
2023/12/06 08:32:40;;;;;;;71.97;35.35;;;4.10;99.90;;;;;;5078749;28;20035;-79
2023/12/06 08:35:07;;;;;;;66.85;35.67;;;4.10;99.90;;;;;;5073809;28;20478;-76
2023/12/06 08:37:33;;;;;;;71.07;36.30;;;4.10;99.90;;;;;;5092678;28;20032;-79
2023/12/06 08:39:59;;;;;;;76.82;40.50;;;4.20;99.90;;;;;;5070830;28;20043;-76
2023/12/06 08:42:26;;;;;;;65.88;36.45;;;4.20;99.90;;;;;;5093734;27;20069;-80
2023/12/06 08:44:55;;;;;;;70.13;37.47;;;4.20;99.90;;;;;;5080210;28;20039;-78
2023/12/06 08:47:22;;;;;;;72.18;37.65;;;4.20;99.90;;;;;;5074624;28;20043;-79
2023/12/06 08:49:48;;;;;;;73.32;39.72;;;4.20;99.90;;;;;;5071256;28;20051;-77
2023/12/06 08:52:15;;;;;;;64.45;34.70;;;4.20;99.90;;;;;;5066146;28;20032;-78
2023/12/06 08:54:41;;;;;;;65.38;37.30;;;4.30;99.90;;;;;;5079644;28;20024;-79
2023/12/06 08:57:08;;;;;;;65.57;33.83;;;4.30;99.90;;;;;;5078472;28;20035;-78
2023/12/06 08:59:34;;;;;;;59.90;33.42;;;4.30;99.90;;;;;;5095379;28;20040;-79
2023/12/06 09:02:00;;;;;;;52.85;30.10;;;4.30;99.90;;;;;;5069520;28;20477;-79
2023/12/06 09:04:27;;;;;;;65.75;34.88;;;4.40;99.90;;;;;;5111651;27;20040;-79
2023/12/06 09:06:53;;;;;;;55.67;31.77;;;4.40;99.90;;;;;;5069715;28;20406;-79
2023/12/06 09:09:19;;;;;;;56.22;30.88;;;4.40;99.90;;;;;;5080121;28;20035;-79
2023/12/06 09:11:46;;;;;;;52.38;28.45;;;4.50;99.90;;;;;;5078058;28;20036;-78
2023/12/06 09:14:12;;;;;;;56.95;31.15;;;4.40;99.90;;;;;;5080772;28;20150;-78
2023/12/06 09:16:42;;;;;;;52.95;29.20;;;4.50;99.90;;;;;;5099282;27;20458;-78
2023/12/06 09:19:08;;;;;;;61.60;33.97;;;4.50;99.90;;;;;;5082278;28;20038;-80
2023/12/06 09:21:46;;;;;;;59.50;33.47;;;4.40;99.90;;;;;;5089671;28;20032;-77
2023/12/06 09:24:13;;;;;;;62.55;33.70;;;4.50;99.90;;;;;;5075670;28;20027;-79
2023/12/06 09:26:40;;;;;;;59.95;33.78;;;4.40;99.90;;;;;;5073031;28;20028;-79
2023/12/06 09:29:08;;;;;;;61.22;35.03;;;4.50;99.90;;;;;;5076670;28;20035;-79
2023/12/06 09:31:35;;;;;;;49.92;29.80;;;4.50;99.90;;;;;;5096046;28;20039;-77
2023/12/06 09:34:02;;;;;;;50.97;28.30;;;4.50;99.90;;;;;;5073902;28;20039;-78
2023/12/06 09:36:29;;;;;;;60.60;32.78;;;4.50;99.90;;;;;;5074679;28;20043;-78
2023/12/06 09:39:00;;;;;;;64.60;35.80;;;4.50;99.90;;;;;;5075559;28;20047;-80
2023/12/06 09:41:28;;;;;;;56.08;33.17;;;4.50;99.90;;;;;;5090071;28;20604;-78
2023/12/06 09:43:55;;;;;;;57.38;34.28;;;4.60;99.90;;;;;;5075043;28;20036;-80
2023/12/06 09:46:22;;;;;;;56.30;33.20;;;4.60;99.90;;;;;;5070528;28;20505;-79
2023/12/06 09:48:49;;;;;;;54.58;31.90;;;4.60;99.90;;;;;;5078122;28;20043;-78
2023/12/06 09:51:17;;;;;;;56.72;31.88;;;4.70;99.90;;;;;;5079621;28;20031;-79
2023/12/06 09:53:44;;;;;;;49.80;30.83;;;4.70;99.90;;;;;;5076068;28;20051;-77
2023/12/06 09:56:12;;;;;;;45.65;27.88;;;4.80;99.90;;;;;;5093122;28;20032;-81
2023/12/06 09:58:39;;;;;;;58.80;34.92;;;4.80;99.90;;;;;;5093996;28;20498;-79
2023/12/06 10:01:06;;;;;;;60.10;33.92;;;4.90;99.90;;;;;;5079587;28;20208;-80
2023/12/06 10:03:32;;;;;;;63.00;36.33;;;4.90;99.90;;;;;;5073795;28;20518;-77
2023/12/06 10:06:03;;;;;;;60.35;35.72;;;5.00;99.90;;;;;;5078234;28;20031;-78
2023/12/06 10:08:34;;;;;;;58.72;34.60;;;5.00;99.90;;;;;;5076127;28;20036;-78
2023/12/06 10:11:08;;;;;;;65.53;37.75;;;5.10;99.90;;;;;;5069420;28;20036;-79
2023/12/06 10:13:37;;;;;;;59.42;38.00;;;5.10;99.90;;;;;;5089264;28;20134;-76
2023/12/06 10:16:13;;;;;;;55.90;35.78;;;5.10;99.90;;;;;;5064377;27;20425;-78
2023/12/06 10:18:40;;;;;;;51.22;33.35;;;5.20;99.90;;;;;;5076524;28;20027;-77
2023/12/06 10:21:07;;;;;;;50.85;33.70;;;5.20;99.90;;;;;;5057607;28;20040;-77
2023/12/06 10:23:34;;;;;;;52.78;33.08;;;5.20;99.90;;;;;;5090855;28;20043;-80
2023/12/06 10:26:03;;;;;;;45.38;29.13;;;5.30;99.90;;;;;;5094839;28;20047;-79
2023/12/06 10:28:29;;;;;;;45.45;31.10;;;5.30;99.90;;;;;;5071132;28;20040;-77
2023/12/06 10:31:03;;;;;;;50.50;30.85;;;5.30;99.90;;;;;;5082438;28;20604;-81
2023/12/06 10:33:31;;;;;;;55.95;33.58;;;5.30;99.90;;;;;;5067829;28;20263;-79
2023/12/06 10:35:59;;;;;;;45.25;29.92;;;5.20;99.90;;;;;;5092059;28;20561;-81
2023/12/06 10:38:28;;;;;;;47.50;29.17;;;5.20;99.90;;;;;;5071269;28;20501;-79
2023/12/06 10:41:04;;;;;;;56.45;36.80;;;5.20;99.90;;;;;;5065397;28;20035;-79
2023/12/06 10:43:32;;;;;;;54.22;33.10;;;5.10;99.90;;;;;;5070990;28;20050;-79
2023/12/06 10:45:59;;;;;;;52.88;31.77;;;5.20;99.90;;;;;;5071883;28;20036;-79
2023/12/06 10:48:29;;;;;;;47.30;30.73;;;5.20;99.90;;;;;;5080345;28;20035;-81
2023/12/06 10:50:56;;;;;;;45.78;29.77;;;5.20;99.90;;;;;;5108347;27;20040;-81
2023/12/06 10:53:23;;;;;;;43.05;30.00;;;5.20;99.90;;;;;;5076609;28;20034;-80
2023/12/06 10:55:50;;;;;;;37.63;26.30;;;5.30;99.90;;;;;;5089730;28;20040;-79
2023/12/06 10:58:17;;;;;;;37.13;27.23;;;5.30;99.90;;;;;;5106128;27;20732;-78
2023/12/06 11:00:45;;;;;;;36.88;27.20;;;5.30;99.90;;;;;;5056666;28;20036;-79
2023/12/06 11:03:11;;;;;;;36.97;27.33;;;5.30;99.90;;;;;;5078746;28;20383;-78
2023/12/06 11:05:44;;;;;;;34.97;25.80;;;5.30;99.90;;;;;;5075464;28;20036;-77
2023/12/06 11:08:10;;;;;;;36.30;25.77;;;5.30;99.90;;;;;;5077669;28;20028;-80
2023/12/06 11:10:53;;;;;;;34.78;26.77;;;5.30;99.90;;;;;;5061622;28;20425;-78
2023/12/06 11:13:27;;;;;;;;;;;5.20;99.90;;;;;;5080078;28;20043;-81
2023/12/06 11:16:00;;;;;;;30.17;24.25;;;5.20;99.90;;;;;;5092620;28;19915;-77
2023/12/06 11:18:37;;;;;;;36.70;25.95;;;5.20;99.90;;;;;;5077885;28;20039;-80
2023/12/06 11:21:04;;;;;;;37.05;26.83;;;5.20;99.90;;;;;;5084362;28;20054;-80
2023/12/06 11:23:30;;;;;;;36.70;27.33;;;5.20;99.90;;;;;;5092288;28;20040;-80
2023/12/06 11:25:56;;;;;;;37.92;26.05;;;5.30;99.90;;;;;;5103156;28;20023;-76
2023/12/06 11:28:23;;;;;;;37.35;27.85;;;5.30;99.90;;;;;;5075037;28;20414;-81
2023/12/06 11:30:51;;;;;;;39.25;28.35;;;5.30;99.90;;;;;;5081875;28;20028;-80
2023/12/06 11:33:18;;;;;;;36.25;25.05;;;5.40;99.90;;;;;;5098370;28;20043;-81
2023/12/06 11:35:49;;;;;;;37.17;25.73;;;5.50;99.90;;;;;;5077123;28;20395;-80
2023/12/06 11:38:15;;;;;;;32.55;25.05;;;5.50;99.90;;;;;;5079345;27;20038;-80
2023/12/06 11:40:52;;;;;;;40.22;27.50;;;5.50;99.90;;;;;;5082610;27;20031;-80
2023/12/06 11:43:37;;;;;;;31.40;23.30;;;5.60;99.90;;;;;;5077404;28;20038;-80
2023/12/06 11:46:08;;;;;;;35.28;25.38;;;5.70;99.90;;;;;;5078432;28;20055;-80
2023/12/06 11:48:40;;;;;;;34.22;25.85;;;5.80;99.90;;;;;;5090949;28;20524;-76
2023/12/06 11:51:06;;;;;;;33.78;25.52;;;5.90;99.90;;;;;;5079810;28;20051;-79
2023/12/06 11:53:39;;;;;;;28.67;20.58;;;6.00;99.90;;;;;;5094711;27;20028;-75
2023/12/06 11:56:08;;;;;;;;;;;6.10;99.90;;;;;;5100387;28;20038;-76
2023/12/06 11:58:35;;;;;;;28.98;19.27;;;6.10;99.90;;;;;;5110861;27;20377;-78
2023/12/06 12:01:02;;;;;;;27.30;21.05;;;6.10;99.90;;;;;;5081875;28;20036;-76
2023/12/06 12:03:31;;;;;;;28.40;22.52;;;6.10;99.90;;;;;;5082031;28;20032;-76
2023/12/06 12:05:58;;;;;;;26.83;21.65;;;6.00;99.90;;;;;;5087761;28;20040;-78
2023/12/06 12:08:27;;;;;;;30.48;21.10;;;6.00;99.90;;;;;;5089822;28;20030;-78
2023/12/06 12:10:54;;;;;;;28.40;22.90;;;6.00;99.90;;;;;;5054682;28;20035;-78
2023/12/06 12:13:25;;;;;;;27.58;22.52;;;6.00;99.90;;;;;;5053883;28;20047;-79
2023/12/06 12:15:52;;;;;;;24.10;20.00;;;6.10;99.90;;;;;;5108218;27;20418;-78
2023/12/06 12:18:19;;;;;;;24.73;20.88;;;6.30;99.90;;;;;;5070596;28;20615;-79
2023/12/06 12:20:46;;;;;;;23.40;20.38;;;6.30;99.90;;;;;;5072258;28;20031;-80
2023/12/06 12:23:12;;;;;;;21.55;18.52;;;6.30;99.90;;;;;;5056677;28;20046;-79
2023/12/06 12:25:49;;;;;;;28.98;21.83;;;6.30;99.90;;;;;;5083348;28;20036;-78
2023/12/06 12:28:19;;;;;;;24.85;21.05;;;6.30;99.90;;;;;;5080901;28;20044;-80
2023/12/06 12:30:49;;;;;;;27.58;24.30;;;6.30;99.90;;;;;;5102516;28;20055;-80
2023/12/06 12:33:16;;;;;;;34.30;27.45;;;6.40;99.90;;;;;;5080309;28;20024;-81